Latest Weather Observations for Kingscote

IDS60801

Issued at 7:31 pm CDT Sunday 24 January 2021 (issued every 10 minutes, with the page automatically refreshed every 10 minutes)

About weather observations | Map of weather stations | Latest weather observations for SA | Other Formats
Station Details ID: 022841 Name: KINGSCOTE AERO Lat: -35.71 Lon: 137.52 Height: 6.23 m
Data from the previous 72 hours. | See also: Recent months at Kingscote
Date/Time
CDT
Temp
°C
App
Temp
°C
Dew
Point
°C
Rel
Hum
%
Delta-T
°C
Wind Press
QNH
hPa
Press
MSL
hPa
Rain since
9am
mm
Dir  Spd
km/h
Gust
km/h
Spd
kts
Gust
kts
24/07:30pm 33.2 29.8 5.7 18 14.8 S 13 15 7 8 1001.3 1001.3 0.0
24/07:00pm 35.7 31.4 5.1 15 16.5 SSW 17 24 9 13 1001.3 1001.3 0.0
24/06:30pm 35.3 30.9 6.6 17 15.8 SW 19 24 10 13 1001.3 1001.3 0.0
24/06:00pm 34.0 29.7 7.9 20 14.6 S 20 24 11 13 1001.4 1001.4 0.0
24/05:30pm 34.8 30.7 8.5 20 14.9 S 20 28 11 15 1001.5 1001.5 0.0
24/05:00pm 34.8 30.5 9.3 21 14.6 SSW 22 30 12 16 1001.7 1001.7 0.0
24/04:30pm 35.9 32.2 11.5 23 14.5 S 22 28 12 15 1001.7 1001.7 0.0
24/04:00pm 35.1 30.5 10.9 23 14.2 S 26 41 14 22 1001.5 1001.5 0.0
24/03:30pm 38.9 34.9 3.1 11 19.1 NW 13 19 7 10 1001.6 1001.6 0.0
24/03:00pm 38.8 34.1 3.1 11 19.0 NW 17 30 9 16 1001.9 1001.9 0.0
24/02:30pm 39.1 32.9 1.9 10 19.5 NW 24 33 13 18 1002.1 1002.1 0.0
24/02:00pm 39.7 33.5 2.4 10 19.7 NNW 24 39 13 21 1002.4 1002.4 0.0
24/01:30pm 40.1 34.2 4.0 11 19.6 N 24 37 13 20 1002.7 1002.7 0.0
24/01:00pm 39.4 33.8 3.5 11 19.2 NNW 22 35 12 19 1002.9 1002.9 0.0
24/12:30pm 37.1 34.0 8.8 18 16.3 NNE 15 26 8 14 1003.5 1003.5 0.0
24/12:00pm 35.5 31.5 4.9 15 16.4 N 15 19 8 10 1004.0 1004.0 0.0
24/11:30am 34.7 29.5 3.3 14 16.4 NNE 20 32 11 17 1004.3 1004.3 0.0
24/11:00am 33.1 28.8 7.1 20 14.2 NE 19 24 10 13 1004.6 1004.6 0.0
24/10:30am 30.5 26.0 7.0 23 12.7 NE 20 28 11 15 1004.5 1004.5 0.0
24/10:00am 30.0 26.9 9.0 27 11.7 NE 15 20 8 11 1004.8 1004.8 0.0
24/09:30am 28.6 27.6 10.3 32 10.4 ESE 6 9 3 5 1005.2 1005.2 0.0
24/09:00am 28.2 26.5 9.9 32 10.3 N 9 13 5 7 1005.3 1005.3 0.0
24/08:30am 25.0 24.7 13.2 48 6.9 NE 7 13 4 7 1005.3 1005.3 0.0
24/08:00am 22.2 23.2 13.3 57 5.1 CALM 0 0 0 0 1005.2 1005.2 0.0
24/07:30am 22.2 23.0 12.7 55 5.4 CALM 0 0 0 0 1005.0 1005.0 0.0
24/07:00am 22.4 23.2 12.6 54 5.6 CALM 0 0 0 0 1005.1 1005.1 0.0
24/06:30am 22.2 22.1 12.2 53 5.7 SSE 4 11 2 6 1004.8 1004.8 0.0
24/06:00am 23.0 23.1 12.6 52 6.0 ENE 4 9 2 5 1004.6 1004.6 0.0
24/05:30am 19.1 19.9 12.4 65 3.8 CALM 0 0 0 0 1004.5 1004.5 0.0
24/05:00am 18.6 19.2 11.9 65 3.7 CALM 0 0 0 0 1004.2 1004.2 0.0
24/04:30am 18.9 19.6 12.2 65 3.7 CALM 0 0 0 0 1004.3 1004.3 0.0
24/04:00am 19.5 20.4 12.8 65 3.8 CALM 0 0 0 0 1004.4 1004.4 0.0
24/03:30am 20.1 21.1 13.1 64 4.0 CALM 0 0 0 0 1004.6 1004.6 0.0
24/03:00am 21.3 21.1 13.0 59 4.7 NNW 6 7 3 4 1005.0 1005.0 0.0
24/02:30am 23.1 22.6 12.7 52 6.0 N 7 11 4 6 1005.2 1005.2 0.0
24/02:00am 24.2 22.7 13.1 50 6.4 NE 13 15 7 8 1005.5 1005.5 0.0
24/01:30am 24.9 23.2 13.5 49 6.7 ENE 15 20 8 11 1005.8 1005.8 0.0
24/01:22am 23.6 22.2 13.5 53 5.9 ENE 13 17 7 9 1005.9 1005.9 0.0
24/01:00am 18.5 19.1 11.8 65 3.7 CALM 0 4 0 2 1006.2 1006.2 0.0
24/12:30am 19.4 19.9 11.7 61 4.3 CALM 0 0 0 0 1006.6 1006.6 0.0
24/12:00am 19.6 20.2 11.9 61 4.3 CALM 0 0 0 0 1006.8 1006.8 0.0
 
Date/Time
CDT
Temp
°C
App
Temp
°C
Dew
Point
°C
Rel
Hum
%
Delta-T
°C
Wind Press
QNH
hPa
Press
MSL
hPa
Rain since
9am
mm
Dir  Spd
km/h
Gust
km/h
Spd
kts
Gust
kts
23/11:30pm 20.5 21.1 12.0 58 4.8 CALM 0 6 0 3 1007.1 1007.1 0.0
23/11:00pm 23.9 23.4 12.8 49 6.4 NE 7 9 4 5 1007.3 1007.3 0.0
23/10:30pm 24.1 23.4 13.3 51 6.3 ENE 9 11 5 6 1007.5 1007.5 0.0
23/10:00pm 23.6 23.5 13.2 52 6.0 E 6 9 3 5 1007.3 1007.3 0.0
23/09:30pm 24.5 22.3 13.4 50 6.5 NE 17 20 9 11 1006.9 1006.9 0.0
23/09:00pm 23.9 24.2 15.1 58 5.3 NE 7 9 4 5 1007.2 1007.2 0.0
23/08:30pm 24.9 25.0 14.4 52 6.2 ENE 7 11 4 6 1007.3 1007.3 0.0
23/08:00pm 25.7 24.0 13.5 46 7.2 ENE 15 20 8 11 1007.2 1007.2 0.0
23/07:30pm 27.8 25.4 12.6 39 8.9 ENE 17 20 9 11 1007.2 1007.2 0.0
23/07:00pm 29.4 26.3 12.3 34 10.0 ENE 20 26 11 14 1007.0 1007.0 0.0
23/06:30pm 31.4 27.8 10.7 28 11.9 ENE 20 24 11 13 1007.1 1007.1 0.0
23/06:00pm 33.0 28.7 7.1 20 14.2 ENE 19 22 10 12 1007.3 1007.3 0.0
23/05:30pm 33.3 29.2 8.0 21 14.1 ENE 19 24 10 13 1007.3 1007.3 0.0
23/05:00pm 32.6 28.2 7.4 21 13.8 ENE 20 22 11 12 1007.4 1007.4 0.0
23/04:30pm 31.8 27.6 8.1 23 13.1 E 20 26 11 14 1007.5 1007.5 0.0
23/04:00pm 32.4 27.8 6.6 20 14.0 ENE 20 26 11 14 1007.6 1007.6 0.0
23/03:30pm 32.7 27.9 7.5 21 13.9 E 22 28 12 15 1007.8 1007.8 0.0
23/03:00pm 32.2 27.6 6.4 20 13.9 ENE 20 24 11 13 1008.3 1008.3 0.0
23/02:30pm 32.1 27.3 5.6 19 14.1 ENE 20 28 11 15 1008.5 1008.5 0.0
23/02:00pm 31.8 26.9 5.3 19 14.0 E 20 26 11 14 1008.9 1008.9 0.0
23/01:30pm 32.5 28.3 5.9 19 14.3 ENE 17 26 9 14 1009.2 1009.2 0.0
23/01:00pm 32.3 28.0 3.3 16 14.9 ENE 15 24 8 13 1009.4 1009.4 0.0
23/12:30pm 30.9 25.7 2.2 16 14.3 ENE 19 28 10 15 1009.5 1009.5 0.0
23/12:00pm 29.9 26.7 5.2 21 12.9 NNE 11 24 6 13 1010.0 1010.0 0.0
23/11:30am 28.4 25.6 7.1 26 11.4 E 11 17 6 9 1010.3 1010.3 0.0
23/11:00am 27.6 24.6 7.5 28 10.8 ENE 13 20 7 11 1010.3 1010.3 0.0
23/10:30am 26.0 23.7 8.9 34 9.3 E 11 20 6 11 1010.6 1010.6 0.0
23/10:00am 24.8 23.7 12.1 45 7.3 ENE 9 15 5 8 1011.0 1011.0 0.0
23/09:30am 23.6 23.3 14.3 56 5.5 NE 9 15 5 8 1011.0 1011.0 0.0
23/09:00am 20.4 20.9 15.0 71 3.2 SE 6 9 3 5 1010.7 1010.7 0.0
23/08:30am 17.6 18.4 14.7 83 1.7 SSW 4 7 2 4 1010.8 1010.8 0.0
23/08:00am 15.9 17.1 14.9 94 0.6 W 2 6 1 3 1010.3 1010.3 0.0
23/07:30am 14.5 14.4 13.9 96 0.3 WNW 7 9 4 5 1010.2 1010.2 0.0
23/07:04am 12.7 12.5 11.9 95 0.4 NW 4 9 2 5 1010.3 1010.3 0.0
23/07:00am 13.2 13.6 12.6 96 0.3 NW 2 7 1 4 1010.3 1010.3 0.0
23/06:44am 11.6 11.1 10.8 95 0.4 SW 4 11 2 6 1010.4 1010.4 0.0
23/06:30am 12.5 12.7 11.9 96 0.3 S 2 6 1 3 1010.0 1010.0 0.0
23/06:00am 11.9 10.9 11.1 95 0.4 SSW 7 9 4 5 1010.2 1010.2 0.0
23/05:30am 11.3 9.8 10.4 94 0.5 SW 9 11 5 6 1010.0 1010.0 0.0
23/05:00am 11.9 10.9 11.0 94 0.5 SSW 7 9 4 5 1009.8 1009.8 0.0
23/04:30am 11.9 10.5 11.0 94 0.5 SSW 9 11 5 6 1009.8 1009.8 0.0
23/04:00am 12.6 11.8 11.7 94 0.5 SE 7 9 4 5 1009.9 1009.9 0.0
23/03:30am 13.3 12.7 12.4 94 0.5 S 7 7 4 4 1010.1 1010.1 0.0
23/03:00am 13.7 14.6 12.8 94 0.5 CALM 0 4 0 2 1010.5 1010.5 0.0
23/02:30am 13.7 12.8 12.6 93 0.6 SSW 9 11 5 6 1011.0 1011.0 0.0
23/02:00am 14.3 13.5 13.0 92 0.7 SSE 9 13 5 7 1011.2 1011.2 0.0
23/01:30am 14.6 14.4 13.1 91 0.8 SW 6 7 3 4 1011.5 1011.5 0.0
23/01:00am 15.6 16.6 14.3 92 0.7 NNW 2 7 1 4 1011.6 1011.6 0.0
23/12:30am 15.1 15.1 13.6 91 0.8 S 6 11 3 6 1011.6 1011.6 0.0
23/12:00am 15.5 15.1 14.0 91 0.8 S 9 11 5 6 1011.7 1011.7 0.0
 
Date/Time
CDT
Temp
°C
App
Temp
°C
Dew
Point
°C
Rel
Hum
%
Delta-T
°C
Wind Press
QNH
hPa
Press
MSL
hPa
Rain since
9am
mm
Dir  Spd
km/h
Gust
km/h
Spd
kts
Gust
kts
22/11:30pm 15.5 14.2 13.7 89 1.0 S 13 13 7 7 1011.9 1011.9 0.0
22/11:00pm 15.8 14.9 13.8 88 1.1 SSW 11 11 6 6 1012.4 1012.4 0.0
22/10:30pm 16.2 15.7 13.9 86 1.3 S 9 11 5 6 1012.5 1012.5 0.0
22/10:00pm 16.9 17.0 14.4 85 1.4 SSE 7 9 4 5 1012.3 1012.3 0.0
22/09:30pm 17.4 17.1 14.5 83 1.7 SE 9 11 5 6 1012.4 1012.4 0.0
22/09:00pm 18.0 17.7 14.5 80 2.0 SE 9 13 5 7 1012.3 1012.3 0.0
22/08:30pm 18.9 17.2 14.6 76 2.5 SE 17 20 9 11 1012.2 1012.2 0.0
22/08:00pm 20.0 17.6 13.9 68 3.5 SE 19 24 10 13 1011.9 1011.9 0.0
22/07:30pm 21.2 17.6 13.1 60 4.6 SSE 24 30 13 16 1011.6 1011.6 0.0
22/07:00pm 23.3 20.2 12.3 50 6.3 SE 20 24 11 13 1011.1 1011.1 0.0
22/06:30pm 24.1 20.9 11.4 45 7.1 SE 19 26 10 14 1010.9 1010.9 0.0
22/06:00pm 25.3 22.2 11.5 42 7.8 SSE 19 26 10 14 1010.8 1010.8 0.0
22/05:30pm 25.0 21.3 10.1 39 8.2 SE 20 30 11 16 1011.0 1011.0 0.0
22/05:00pm 25.8 21.7 8.8 34 9.2 SE 20 28 11 15 1011.1 1011.1 0.0
22/04:30pm 26.5 22.1 8.9 33 9.6 SE 22 32 12 17 1011.2 1011.2 0.0
22/04:00pm 26.4 22.2 8.4 32 9.7 SE 20 32 11 17 1011.5 1011.5 0.0
22/03:30pm 26.6 21.6 8.1 31 10.0 SE 24 32 13 17 1011.7 1011.7 0.0
22/03:00pm 26.8 22.3 8.7 32 9.9 SE 22 30 12 16 1011.7 1011.7 0.0
22/02:30pm 26.4 22.0 8.8 33 9.6 SSE 22 32 12 17 1011.9 1011.9 0.0
22/02:00pm 26.2 21.1 9.1 34 9.3 SSE 26 35 14 19 1011.9 1011.9 0.0
22/01:30pm 27.0 22.2 10.2 35 9.4 SSE 26 33 14 18 1011.9 1011.9 0.0
22/01:00pm 26.5 21.3 10.2 36 9.1 SSE 28 37 15 20 1012.1 1012.1 0.0
22/12:30pm 27.4 24.2 11.8 38 9.0 SSE 20 32 11 17 1012.0 1012.0 0.0
22/12:00pm 28.5 25.2 6.6 25 11.6 S 13 20 7 11 1011.9 1011.9 0.0
22/11:30am 27.4 24.4 6.2 26 11.1 S 11 20 6 11 1012.1 1012.1 0.0
22/11:00am 26.3 23.0 6.4 28 10.4 S 13 20 7 11 1012.2 1012.2 0.0
22/10:30am 24.7 21.1 8.2 35 8.8 S 17 22 9 12 1012.4 1012.4 0.0
22/10:00am 23.0 20.2 10.1 44 7.0 S 15 20 8 11 1012.5 1012.5 0.0
22/09:30am 21.6 19.2 11.3 52 5.7 S 15 19 8 10 1012.6 1012.6 0.0
22/09:00am 20.5 19.8 14.4 68 3.6 S 11 15 6 8 1012.5 1012.5 0.0
22/08:30am 17.9 17.5 14.0 78 2.2 SW 9 13 5 7 1012.3 1012.3 0.0
22/08:00am 14.0 13.1 11.5 85 1.3 WSW 7 11 4 6 1012.3 1012.3 0.0
22/07:30am 11.2 10.9 10.0 92 0.6 WSW 2 9 1 5 1012.0 1012.0 0.0
22/07:00am 9.2 8.8 8.1 93 0.5 CALM 0 0 0 0 1012.0 1012.0 0.0
22/06:30am 9.2 7.6 8.1 93 0.5 SW 6 7 3 4 1011.7 1011.7 0.0
22/06:00am 9.3 6.8 8.2 93 0.5 WSW 11 15 6 8 1011.4 1011.4 0.0
22/05:30am 9.3 7.6 8.4 94 0.4 WSW 7 9 4 5 1010.9 1010.9 0.0
22/05:00am 8.1 5.2 6.7 91 0.6 WSW 11 13 6 7 1010.8 1010.8 0.0
22/04:30am 9.6 7.9 8.2 91 0.7 SW 7 11 4 6 1010.6 1010.6 0.0
22/04:00am 10.6 10.1 9.4 92 0.6 NNW 2 7 1 4 1010.7 1010.7 0.0
22/03:30am 10.7 9.4 9.1 90 0.8 WNW 6 7 3 4 1010.6 1010.6 0.0
22/03:00am 11.2 10.1 9.8 91 0.7 WNW 6 9 3 5 1010.5 1010.5 0.0
22/02:30am 10.7 8.8 9.0 89 0.8 WSW 9 11 5 6 1010.4 1010.4 0.0
22/02:00am 11.8 10.1 9.9 88 1.0 SSW 9 11 5 6 1010.4 1010.4 0.0
22/01:30am 11.7 9.9 9.3 85 1.2 SSW 9 11 5 6 1010.7 1010.7 0.0
22/01:00am 12.7 12.9 10.4 86 1.2 CALM 0 0 0 0 1010.9 1010.9 0.0
22/12:30am 12.8 11.3 9.3 79 1.8 SW 7 9 4 5 1010.9 1010.9 0.0
22/12:00am 13.8 12.6 9.6 76 2.2 SSW 6 9 3 5 1011.3 1011.3 0.0
 
Date/Time
CDT
Temp
°C
App
Temp
°C
Dew
Point
°C
Rel
Hum
%
Delta-T
°C
Wind Press
QNH
hPa
Press
MSL
hPa
Rain since
9am
mm
Dir  Spd
km/h
Gust
km/h
Spd
kts
Gust
kts
21/11:30pm 14.5 13.1 9.7 73 2.5 SSW 7 9 4 5 1011.7 1011.7 0.0
21/11:00pm 15.3 13.2 9.9 70 2.8 S 11 15 6 8 1012.0 1012.0 0.0
21/10:30pm 15.8 13.3 9.7 67 3.2 S 13 15 7 8 1012.2 1012.2 0.0
21/10:00pm 16.0 15.1 9.4 65 3.4 S 4 7 2 4 1012.1 1012.1 0.0
21/09:30pm 17.7 15.9 10.8 64 3.7 SE 11 13 6 7 1011.8 1011.8 0.0
21/09:00pm 19.3 17.0 10.6 57 4.7 SE 13 15 7 8 1011.7 1011.7 0.0
21/08:30pm 21.3 18.0 7.9 42 7.0 SE 15 19 8 10 1011.7 1011.7 0.0
21/08:00pm 23.6 19.2 4.5 29 9.5 SSE 17 24 9 13 1011.3 1011.3 0.0

Other formats

Comma delimited format used in spreadsheet applications
http://www.bom.gov.au/fwo/IDS60801/IDS60801.95807.axf

JavaScript Object Notation format (JSON) in row-major order
http://www.bom.gov.au/fwo/IDS60801/IDS60801.95807.json

Data quality

Most of these data are generated automatically and are frequently updated. Quality checks on data are not normally performed. It is possible for incorrect values to appear. Refer to information at About Latest Weather Observations and please check the disclaimer before using these data.